Aeroporto :
LOGIN :

Iscrizione | Disclaimer

   EN    FR    IT 

 










Sommario :    VFR   VFR Marginale   IFR   IFR Intensivo   IFR Molto Intensivo
Visibilità : 
Base nubi : 
>= 8 km
>= 3000ft
5 / 8 km
1000 / 3000 ft
1500m / 5 km
500 / 1000 ft
800 / 1500m
200 / 500 ft
< 800m
< 200 ft
Simboli :   Temporali  Nebbia  Neve Forte  Precipitazioni Forti  Vento > 20 kt
SIGMETs :   Varie  Temporali  Ghiacco  Turbolenza  Onda orograficha  Ceneri Vulcaniche







- Altitudine del aeroporto : 433 ft
- Carte del aeroporto


LFOC - Chateaudun

ULTIMO METAR :
  • 222100Z AUTO VRB01KT CAVOK 13/10 Q1020

METARs OBSOLETI :
  • 222030Z AUTO 06002KT CAVOK 15/09 Q1020
  • 222000Z AUTO 06004KT CAVOK 16/10 Q1020
  • 221930Z AUTO 05003KT CAVOK 17/10 Q1020
  • 221900Z AUTO 04003KT CAVOK 18/10 Q1020
  • 221830Z AUTO 04004KT CAVOK 19/09 Q1020

TAF TAF LFOC
Valido dal 22 a 15 ore il 23 a 15 ore UTC


221400Z 2215/2315 03004KT CAVOK
PROB30 2302/2305 4000 BR
Nessun NOTAM noto per questo aeroporto.



MetMap, La meteo Aeronautica in un colpo d'occhio ! - Copyright ORBIFLY Dicembre 2007 - Disclaimer

ORBIFLY MET'MAP TEAM :

Programmazione e sviluppo : Alexandra Zaïnal
Concezione e sviluppo : Baudouin d'Aumeries
Co-Programmazione e sviluppo : Marc-Olivier Méhu
Supporto tecnico e logistico : Manuel Goepfert
Aiuto per la traduzione : Arnaldo La Scala

Contatto : metmap@orbifly.com




FONTI E CREDITI :

   NOAA